createdAt,value
2022-10-18T00:00:21.526Z,1.04
2022-10-18T00:01:21.669Z,1.04
2022-10-18T00:02:21.847Z,1.04
2022-10-18T00:03:21.938Z,1.04
2022-10-18T00:04:22.115Z,1.04
2022-10-18T00:05:22.243Z,1.04
2022-10-18T00:06:22.379Z,1.04
2022-10-18T00:07:22.538Z,1.04
2022-10-18T00:08:22.685Z,1.04
2022-10-18T00:09:22.836Z,1.04
2022-10-18T00:10:22.997Z,1.04
2022-10-18T00:11:23.139Z,1.04
2022-10-18T00:12:23.286Z,1.04
2022-10-18T00:13:23.452Z,1.04
2022-10-18T00:14:23.608Z,1.04
2022-10-18T00:15:23.704Z,1.04
2022-10-18T00:16:23.833Z,1.04
2022-10-18T00:17:23.946Z,1.04
2022-10-18T00:18:24.101Z,1.04
2022-10-18T00:19:24.806Z,1.04
2022-10-18T00:20:24.407Z,1.04
2022-10-18T00:21:24.566Z,1.04
2022-10-18T00:22:24.716Z,1.04
2022-10-18T00:23:24.814Z,1.04
2022-10-18T00:24:24.953Z,1.04
2022-10-18T00:25:25.117Z,1.04
2022-10-18T00:26:25.294Z,1.04
2022-10-18T00:27:25.407Z,1.04
2022-10-18T00:28:25.612Z,1.04
2022-10-18T00:29:25.732Z,1.04
2022-10-18T00:30:25.831Z,1.04
2022-10-18T00:31:25.918Z,1.04
2022-10-18T00:32:26.106Z,1.04
2022-10-18T00:33:26.233Z,1.04
2022-10-18T00:34:26.387Z,1.04
2022-10-18T00:35:26.519Z,1.04
2022-10-18T00:36:26.616Z,1.04
2022-10-18T00:37:26.771Z,1.04
2022-10-18T00:38:26.891Z,1.04
2022-10-18T00:39:27.037Z,1.04
2022-10-18T00:40:27.199Z,1.04
2022-10-18T00:41:27.348Z,1.04
2022-10-18T00:42:27.536Z,1.04
2022-10-18T00:43:27.650Z,1.04
2022-10-18T00:44:27.760Z,1.04
2022-10-18T00:45:27.868Z,1.04
2022-10-18T00:46:27.990Z,1.04
2022-10-18T00:47:28.103Z,1.04
2022-10-18T00:48:28.246Z,1.04
2022-10-18T00:49:28.409Z,1.04
2022-10-18T00:50:28.518Z,1.04
2022-10-18T00:51:28.664Z,1.04
2022-10-18T00:52:29.079Z,1.04
2022-10-18T00:53:28.960Z,1.04
2022-10-18T00:54:29.072Z,1.04
2022-10-18T00:55:29.223Z,1.04
2022-10-18T00:56:29.373Z,1.04
2022-10-18T00:57:29.483Z,1.04
2022-10-18T00:58:29.578Z,1.04
2022-10-18T00:59:29.725Z,1.04
2022-10-18T01:00:29.887Z,1.04
2022-10-18T01:01:30.097Z,1.04
2022-10-18T01:02:30.484Z,1.04
2022-10-18T01:03:30.238Z,1.04
2022-10-18T01:04:30.394Z,1.04
2022-10-18T01:05:30.531Z,1.04
2022-10-18T01:06:30.692Z,1.04
2022-10-18T01:07:31.111Z,1.04
2022-10-18T01:08:31.003Z,1.04
2022-10-18T01:09:31.149Z,1.04
2022-10-18T01:10:31.284Z,1.04
2022-10-18T01:11:32.022Z,1.04
2022-10-18T01:12:31.506Z,1.04
2022-10-18T01:13:31.658Z,1.04
2022-10-18T01:14:31.764Z,1.04
2022-10-18T01:15:31.846Z,1.04
2022-10-18T01:16:32.148Z,1.04
2022-10-18T01:17:32.319Z,1.04
2022-10-18T01:18:32.257Z,1.04
2022-10-18T01:19:32.409Z,1.04
2022-10-18T01:20:32.509Z,1.04
2022-10-18T01:21:32.669Z,1.04
2022-10-18T01:22:32.774Z,1.04
2022-10-18T01:23:32.872Z,1.04
2022-10-18T01:24:33.017Z,1.04
2022-10-18T01:25:33.163Z,1.04
2022-10-18T01:26:33.279Z,1.04
2022-10-18T01:27:33.685Z,1.04
2022-10-18T01:28:33.625Z,1.04
2022-10-18T01:29:33.724Z,1.04
2022-10-18T01:30:33.832Z,1.04
2022-10-18T01:31:33.974Z,1.04
2022-10-18T01:32:34.146Z,1.04
2022-10-18T01:33:34.294Z,1.04
2022-10-18T01:34:34.441Z,1.04
2022-10-18T01:35:34.587Z,1.04
2022-10-18T01:36:34.736Z,1.04
2022-10-18T01:37:34.897Z,1.04
2022-10-18T01:38:34.995Z,1.04
2022-10-18T01:39:35.149Z,1.04
2022-10-18T01:40:35.300Z,1.04
2022-10-18T01:41:35.440Z,1.04
2022-10-18T01:42:35.602Z,1.04
2022-10-18T01:43:35.760Z,1.04
2022-10-18T01:44:35.906Z,1.04
2022-10-18T01:45:36.009Z,1.04
2022-10-18T01:46:36.148Z,1.04
2022-10-18T01:47:36.259Z,1.04
2022-10-18T01:48:36.361Z,1.04
2022-10-18T01:49:36.512Z,1.04
2022-10-18T01:50:36.713Z,1.04
2022-10-18T01:51:36.809Z,1.04
2022-10-18T01:52:36.910Z,1.04
2022-10-18T01:53:37.079Z,1.04
2022-10-18T01:54:37.214Z,1.04
2022-10-18T01:55:37.311Z,1.04
2022-10-18T01:56:37.474Z,1.04
2022-10-18T01:57:37.639Z,1.04
2022-10-18T01:58:37.747Z,1.04
2022-10-18T01:59:37.884Z,1.04
2022-10-18T02:00:37.986Z,1.04
2022-10-18T02:01:38.128Z,1.04
2022-10-18T02:02:38.226Z,1.04
2022-10-18T02:03:38.347Z,1.04
2022-10-18T02:04:38.488Z,1.04
2022-10-18T02:05:38.623Z,1.04
2022-10-18T02:06:38.747Z,1.04
2022-10-18T02:07:38.841Z,1.04
2022-10-18T02:08:38.999Z,1.04
2022-10-18T02:09:39.099Z,1.04
2022-10-18T02:10:39.249Z,1.04
2022-10-18T02:11:39.407Z,1.04
2022-10-18T02:12:39.550Z,1.04
2022-10-18T02:13:39.651Z,1.04
2022-10-18T02:14:39.802Z,1.04
2022-10-18T02:15:39.959Z,1.04
2022-10-18T02:16:40.116Z,1.04
2022-10-18T02:17:40.250Z,1.04
2022-10-18T02:18:40.323Z,1.04
2022-10-18T02:19:40.484Z,1.04
2022-10-18T02:20:40.622Z,1.04
2022-10-18T02:21:40.761Z,1.04
2022-10-18T02:22:40.870Z,1.04
2022-10-18T02:23:40.984Z,1.04
2022-10-18T02:24:41.130Z,1.04
2022-10-18T02:25:41.284Z,1.04
2022-10-18T02:26:41.440Z,1.04
2022-10-18T02:27:41.611Z,1.04
2022-10-18T02:28:41.699Z,1.04
2022-10-18T02:29:41.791Z,1.04
2022-10-18T02:30:41.923Z,1.04
2022-10-18T02:31:42.108Z,1.04
2022-10-18T02:32:42.237Z,1.04
2022-10-18T02:33:42.391Z,1.04
2022-10-18T02:34:42.498Z,1.04
2022-10-18T02:35:42.644Z,1.04
2022-10-18T02:36:42.795Z,1.04
2022-10-18T02:37:42.940Z,1.04
2022-10-18T02:38:43.050Z,1.04
2022-10-18T02:39:43.212Z,1.04
2022-10-18T02:40:43.364Z,1.04
2022-10-18T02:41:43.511Z,1.04
2022-10-18T02:42:43.667Z,1.04
2022-10-18T02:43:43.830Z,1.04
2022-10-18T02:44:43.963Z,1.04
2022-10-18T02:45:44.098Z,1.04
2022-10-18T02:46:44.274Z,1.04
2022-10-18T02:47:44.425Z,1.04
2022-10-18T02:48:44.564Z,1.04
2022-10-18T02:49:44.720Z,1.04
2022-10-18T02:50:44.868Z,1.04
2022-10-18T02:51:45.030Z,1.04
2022-10-18T02:52:45.177Z,1.04
2022-10-18T02:53:45.327Z,1.04
2022-10-18T02:54:45.477Z,1.04
2022-10-18T02:55:45.648Z,1.04
2022-10-18T02:56:45.786Z,1.04
2022-10-18T02:57:45.937Z,1.04
2022-10-18T02:58:46.084Z,1.04
2022-10-18T02:59:46.256Z,1.04
2022-10-18T03:00:46.387Z,1.04
2022-10-18T03:01:46.623Z,1.04
2022-10-18T03:02:46.689Z,1.04
2022-10-18T03:03:46.845Z,1.04
2022-10-18T03:04:46.992Z,1.04
2022-10-18T03:05:47.154Z,1.04
2022-10-18T03:06:47.268Z,1.04
2022-10-18T03:07:47.403Z,1.04
2022-10-18T03:08:47.562Z,1.04
2022-10-18T03:09:47.708Z,1.04
2022-10-18T03:10:47.860Z,1.04
2022-10-18T03:11:48.044Z,1.04
2022-10-18T03:12:48.159Z,1.04
2022-10-18T03:13:48.315Z,1.04
2022-10-18T03:14:48.477Z,1.04
2022-10-18T03:15:48.640Z,1.04
2022-10-18T03:16:48.716Z,1.04
2022-10-18T03:17:48.828Z,1.04
2022-10-18T03:18:48.971Z,1.04
2022-10-18T03:19:49.135Z,1.04
2022-10-18T03:20:49.270Z,1.04
2022-10-18T03:21:49.378Z,1.04
2022-10-18T03:22:49.533Z,1.04
2022-10-18T03:23:49.634Z,1.04
2022-10-18T03:24:49.785Z,1.04
2022-10-18T03:25:49.935Z,1.04
2022-10-18T03:26:50.090Z,1.04
2022-10-18T03:27:50.234Z,1.04
2022-10-18T03:28:50.467Z,1.04
2022-10-18T03:29:50.553Z,1.04
2022-10-18T03:30:50.689Z,1.04
2022-10-18T03:31:50.795Z,1.04
2022-10-18T03:32:50.958Z,1.04
2022-10-18T03:33:51.107Z,1.04
2022-10-18T03:34:51.246Z,1.04
2022-10-18T03:35:51.398Z,1.04
2022-10-18T03:36:51.558Z,1.04
2022-10-18T03:37:51.718Z,1.04
2022-10-18T03:38:51.810Z,1.04
2022-10-18T03:39:51.953Z,1.04
2022-10-18T03:40:52.123Z,1.04
2022-10-18T03:41:52.274Z,1.04
2022-10-18T03:42:52.413Z,1.04
2022-10-18T03:43:52.570Z,1.04
2022-10-18T03:44:52.717Z,1.04
2022-10-18T03:45:52.811Z,1.04
2022-10-18T03:46:52.999Z,1.04
2022-10-18T03:47:53.129Z,1.04
2022-10-18T03:48:53.276Z,1.04
2022-10-18T03:49:54.755Z,1.04
2022-10-18T03:50:53.539Z,1.04
2022-10-18T03:51:53.627Z,1.04
2022-10-18T03:52:53.787Z,1.04
2022-10-18T03:53:53.930Z,1.04
2022-10-18T03:54:54.079Z,1.04
2022-10-18T03:55:54.243Z,1.04
2022-10-18T03:56:54.386Z,1.04
2022-10-18T03:57:54.549Z,1.04
2022-10-18T03:58:54.696Z,1.04
2022-10-18T03:59:54.855Z,1.04
2022-10-18T04:00:54.985Z,1.04
2022-10-18T04:01:55.205Z,1.04
2022-10-18T04:02:55.960Z,1.04
2022-10-18T04:03:55.443Z,1.04
2022-10-18T04:04:55.595Z,1.04
2022-10-18T04:05:55.713Z,1.04
2022-10-18T04:06:55.861Z,1.04
2022-10-18T04:07:56.015Z,1.04
2022-10-18T04:08:56.157Z,1.04
2022-10-18T04:09:56.271Z,1.04
2022-10-18T04:10:56.415Z,1.04
2022-10-18T04:11:56.510Z,1.04
2022-10-18T04:12:56.618Z,1.04
2022-10-18T04:13:56.767Z,1.04
2022-10-18T04:14:56.875Z,1.04
2022-10-18T04:15:56.972Z,1.04
2022-10-18T04:16:57.135Z,1.04
2022-10-18T04:17:57.273Z,1.04
2022-10-18T04:18:57.430Z,1.04
2022-10-18T04:19:57.587Z,1.04
2022-10-18T04:20:57.740Z,1.04
2022-10-18T04:21:57.845Z,1.04
2022-10-18T04:22:57.981Z,1.04
2022-10-18T04:23:58.145Z,1.04
2022-10-18T04:24:58.293Z,1.04
2022-10-18T04:25:58.459Z,1.04
2022-10-18T04:26:58.603Z,1.04
2022-10-18T04:27:58.743Z,1.04
2022-10-18T04:28:58.949Z,1.04
2022-10-18T04:29:59.058Z,1.04
2022-10-18T04:30:59.186Z,1.04
2022-10-18T04:31:59.364Z,1.04
2022-10-18T04:32:59.501Z,1.04
2022-10-18T04:33:59.664Z,1.04
2022-10-18T04:34:59.843Z,1.04
2022-10-18T04:35:59.952Z,1.04
2022-10-18T04:37:00.132Z,1.04
2022-10-18T04:38:00.265Z,1.04
2022-10-18T04:39:00.414Z,1.04
2022-10-18T04:40:00.579Z,1.04
2022-10-18T04:41:00.726Z,1.04
2022-10-18T04:42:00.830Z,1.04
2022-10-18T04:43:00.974Z,1.04
2022-10-18T04:44:01.084Z,1.04
2022-10-18T04:45:01.238Z,1.04
2022-10-18T04:46:01.316Z,1.04
2022-10-18T04:47:01.497Z,1.04
2022-10-18T04:48:01.628Z,1.04
2022-10-18T04:49:01.785Z,1.04
2022-10-18T04:50:01.910Z,1.04
2022-10-18T04:51:02.033Z,1.04
2022-10-18T04:52:02.181Z,1.04
2022-10-18T04:53:02.341Z,1.04
2022-10-18T04:54:02.451Z,1.04
2022-10-18T04:55:02.598Z,1.04
2022-10-18T04:56:02.744Z,1.04
2022-10-18T04:57:02.899Z,2
2022-10-18T04:58:03.054Z,2
2022-10-18T04:59:03.196Z,2
2022-10-18T05:00:03.354Z,2
2022-10-18T05:01:03.447Z,2
2022-10-18T05:03:04.680Z,3.04
2022-10-18T05:04:03.894Z,3.04
2022-10-18T05:05:04.057Z,4
2022-10-18T05:06:04.225Z,4
2022-10-18T05:07:04.364Z,5.04
2022-10-18T05:08:04.506Z,5.04
2022-10-18T05:09:04.653Z,6
2022-10-18T05:10:04.813Z,6
2022-10-18T05:11:05.043Z,7.04
2022-10-18T05:12:05.116Z,7.04
2022-10-18T05:13:05.269Z,8
2022-10-18T05:14:05.370Z,9.04
2022-10-18T05:15:05.517Z,11.04
2022-10-18T05:16:05.667Z,12
2022-10-18T05:17:05.845Z,14
2022-10-18T05:18:05.982Z,16
2022-10-18T05:19:06.084Z,19.04
2022-10-18T05:20:06.287Z,21.04
2022-10-18T05:21:06.415Z,24
2022-10-18T05:22:06.545Z,27.04
2022-10-18T05:23:06.698Z,30
2022-10-18T05:24:06.840Z,34
2022-10-18T05:25:07.000Z,38
2022-10-18T05:26:07.149Z,42
2022-10-18T05:27:07.319Z,45.04
2022-10-18T05:28:11.036Z,50
2022-10-18T05:29:07.719Z,53.04
2022-10-18T05:30:07.708Z,57.04
2022-10-18T05:31:07.867Z,63.04
2022-10-18T05:32:08.017Z,68
2022-10-18T05:33:08.162Z,75.04
2022-10-18T05:34:08.308Z,85.04
2022-10-18T05:35:08.463Z,94
2022-10-18T05:36:08.603Z,106
2022-10-18T05:37:08.719Z,118
2022-10-18T05:38:08.868Z,128
2022-10-18T05:39:09.032Z,140
2022-10-18T05:40:09.130Z,151.04
2022-10-18T05:41:09.265Z,163.04
2022-10-18T05:42:09.421Z,175.04
2022-10-18T05:43:09.582Z,191.04
2022-10-18T05:44:09.725Z,205.12
2022-10-18T05:45:09.886Z,227.04
2022-10-18T05:46:13.876Z,242.08
2022-10-18T05:47:10.126Z,270.08
2022-10-18T05:48:10.234Z,296
2022-10-18T05:49:10.391Z,318.08
2022-10-18T05:50:10.548Z,344
2022-10-18T05:51:10.688Z,365.12
2022-10-18T05:52:10.793Z,383.04
2022-10-18T05:53:12.244Z,406.08
2022-10-18T05:54:11.095Z,454.08
2022-10-18T05:55:11.246Z,501.12
2022-10-18T05:56:11.451Z,551.04
2022-10-18T05:57:11.570Z,579.2
2022-10-18T05:58:11.704Z,610.24
2022-10-18T05:59:11.974Z,629.12
2022-10-18T06:00:12.009Z,638.08
2022-10-18T06:01:12.146Z,625.28
2022-10-18T06:02:12.376Z,598.08
2022-10-18T06:03:12.465Z,583.04
2022-10-18T06:04:12.605Z,583.04
2022-10-18T06:05:12.773Z,599.04
2022-10-18T06:06:12.927Z,652.16
2022-10-18T06:07:13.089Z,732.16
2022-10-18T06:08:13.175Z,795.52
2022-10-18T06:09:13.319Z,812.16
2022-10-18T06:10:13.466Z,816
2022-10-18T06:11:13.631Z,852.48
2022-10-18T06:12:13.775Z,875.52
2022-10-18T06:13:13.926Z,888.32
2022-10-18T06:14:14.079Z,906.24
2022-10-18T06:15:14.249Z,935.04
2022-10-18T06:16:14.421Z,936.32
2022-10-18T06:17:14.485Z,905.6
2022-10-18T06:18:14.641Z,869.12
2022-10-18T06:19:14.744Z,823.04
2022-10-18T06:20:14.892Z,790.4
2022-10-18T06:21:15.002Z,754.56
2022-10-18T06:22:15.142Z,732.16
2022-10-18T06:23:15.302Z,731.52
2022-10-18T06:24:15.451Z,742.4
2022-10-18T06:25:15.596Z,766.08
2022-10-18T06:26:15.763Z,823.04
2022-10-18T06:27:15.910Z,868.48
2022-10-18T06:28:16.057Z,893.44
2022-10-18T06:29:16.213Z,885.12
2022-10-18T06:30:16.361Z,858.24
2022-10-18T06:31:16.458Z,843.52
2022-10-18T06:32:16.625Z,859.52
2022-10-18T06:33:16.759Z,974.08
2022-10-18T06:34:16.870Z,1000.32
2022-10-18T06:35:17.016Z,1125.12
2022-10-18T06:36:17.170Z,1231.36
2022-10-18T06:37:17.275Z,1422.08
2022-10-18T06:38:17.438Z,1623.04
2022-10-18T06:39:17.539Z,1879.04
2022-10-18T06:40:17.685Z,2191.36
2022-10-18T06:41:17.832Z,2302.72
2022-10-18T06:42:19.109Z,2216.96
2022-10-18T06:43:20.889Z,2039.04
2022-10-18T06:44:18.278Z,1815.04
2022-10-18T06:45:18.456Z,1715.2
2022-10-18T06:46:18.583Z,1684.48
2022-10-18T06:47:18.759Z,1707.52
2022-10-18T06:49:20.050Z,1725.44
2022-10-18T06:50:19.185Z,1655.04
2022-10-18T06:51:19.342Z,1597.44
2022-10-18T06:52:19.499Z,1556.48
2022-10-18T06:53:19.651Z,1552.64
2022-10-18T06:54:19.772Z,1560.32
2022-10-18T06:55:19.914Z,1582.08
2022-10-18T06:56:20.044Z,1579.52
2022-10-18T06:57:20.205Z,1528.32
2022-10-18T06:58:20.347Z,1477.12
2022-10-18T06:59:20.463Z,1413.12
2022-10-18T07:00:20.609Z,1340.16
2022-10-18T07:01:20.844Z,1303.04
2022-10-18T07:02:20.913Z,1309.44
2022-10-18T07:03:21.066Z,1351.68
2022-10-18T07:04:21.220Z,1423.36
2022-10-18T07:05:21.426Z,1516.8
2022-10-18T07:06:21.476Z,1669.12
2022-10-18T07:07:21.624Z,1734.4
2022-10-18T07:08:21.777Z,1678.08
2022-10-18T07:09:21.929Z,1606.4
2022-10-18T07:10:22.085Z,1597.44
2022-10-18T07:11:22.184Z,1733.12
2022-10-18T07:12:22.275Z,1895.68
2022-10-18T07:13:32.252Z,1969.92
2022-10-18T07:14:25.782Z,1932.8
2022-10-18T07:15:22.810Z,1852.16
2022-10-18T07:16:22.887Z,1792
2022-10-18T07:17:23.005Z,1704.96
2022-10-18T07:18:23.147Z,1632
2022-10-18T07:19:23.292Z,1580.8
2022-10-18T07:20:23.452Z,1571.84
2022-10-18T07:21:23.606Z,1560.32
2022-10-18T07:22:27.044Z,1537.28
2022-10-18T07:23:23.916Z,1515.52
2022-10-18T07:24:24.130Z,1501.44
2022-10-18T07:25:25.861Z,1514.24
2022-10-18T07:26:24.368Z,1536
2022-10-18T07:27:24.505Z,1591.04
2022-10-18T07:28:24.686Z,1880.32
2022-10-18T07:29:25.043Z,2359.04
2022-10-18T07:30:25.169Z,2726.4
2022-10-18T07:31:25.323Z,2905.6
2022-10-18T07:32:25.468Z,3059.2
2022-10-18T07:33:25.626Z,3356.16
2022-10-18T07:34:25.774Z,3847.68
2022-10-18T07:35:26.139Z,4372.48
2022-10-18T07:36:26.027Z,4930.56
2022-10-18T07:37:26.710Z,5253.12
2022-10-18T07:38:26.329Z,5570.56
2022-10-18T07:39:26.431Z,5693.44
2022-10-18T07:40:26.537Z,5616.64
2022-10-18T07:41:26.680Z,5457.92
2022-10-18T07:42:26.839Z,5422.08
2022-10-18T07:43:27.002Z,5703.68
2022-10-18T07:44:27.089Z,6225.92
2022-10-18T07:45:27.235Z,6522.88
2022-10-18T07:46:27.332Z,6471.68
2022-10-18T07:47:28.075Z,6251.52
2022-10-18T07:48:27.547Z,5841.92
2022-10-18T07:49:27.695Z,5847.04
2022-10-18T07:50:27.859Z,6277.12
2022-10-18T07:51:28.007Z,7045.12
2022-10-18T07:52:28.168Z,7992.32
2022-10-18T07:53:28.302Z,8586.24
2022-10-18T07:54:28.451Z,9077.76
2022-10-18T07:55:28.620Z,9774.08
2022-10-18T07:56:28.766Z,10762.24
2022-10-18T07:57:28.923Z,13281.279
2022-10-18T07:58:29.063Z,12072.96
2022-10-18T07:59:29.167Z,12492.8
2022-10-18T08:00:29.321Z,12840.96
2022-10-18T08:01:29.475Z,13373.439
2022-10-18T08:02:29.567Z,14100.479
2022-10-18T08:03:29.718Z,15001.6
2022-10-18T08:04:29.873Z,16363.52
2022-10-18T08:05:30.130Z,25784.32
2022-10-18T08:06:30.179Z,16670.72
2022-10-18T08:07:30.607Z,16302.08
2022-10-18T08:08:30.433Z,17346.56
2022-10-18T08:09:30.571Z,16240.64
2022-10-18T08:10:30.768Z,18616.32
2022-10-18T08:11:30.877Z,42106.88
2022-10-18T08:12:31.031Z,13905.92
2022-10-18T08:13:31.177Z,12103.68
2022-10-18T08:14:31.268Z,10275.84
2022-10-18T08:15:31.453Z,9221.12
2022-10-18T08:17:33.120Z,7843.84
2022-10-18T08:18:31.838Z,6748.16
2022-10-18T08:19:31.947Z,6394.88
2022-10-18T08:20:32.156Z,6645.76
2022-10-18T08:21:32.254Z,7403.52
2022-10-18T08:22:32.409Z,8401.92
2022-10-18T08:23:32.560Z,9103.359
2022-10-18T08:24:32.711Z,8898.56
2022-10-18T08:25:32.930Z,8125.44
2022-10-18T08:26:32.973Z,7623.68
2022-10-18T08:27:33.300Z,7541.76
2022-10-18T08:28:33.314Z,7920.64
2022-10-18T08:29:33.447Z,8729.6
2022-10-18T08:30:33.583Z,9523.2
2022-10-18T08:31:33.731Z,10158.08
2022-10-18T08:32:34.138Z,10408.96
2022-10-18T08:33:34.005Z,10373.12
2022-10-18T08:34:34.173Z,9876.479
2022-10-18T08:35:34.285Z,8785.92
2022-10-18T08:36:34.428Z,7321.6
2022-10-18T08:37:34.889Z,6205.44
2022-10-18T08:38:34.740Z,5729.28
2022-10-18T08:39:34.886Z,5324.8
2022-10-18T08:40:34.985Z,4856.32
2022-10-18T08:41:35.140Z,4590.08
2022-10-18T08:42:35.361Z,4520.96
2022-10-18T08:44:36.338Z,5800.96
2022-10-18T08:45:42.204Z,7316.48
2022-10-18T08:46:35.837Z,8611.84
2022-10-18T08:47:36.003Z,9825.279
2022-10-18T08:48:36.156Z,10936.319
2022-10-18T08:49:36.306Z,11694.08
2022-10-18T08:50:36.435Z,14202.88
2022-10-18T08:51:36.559Z,13619.199
2022-10-18T08:52:36.733Z,14192.64
2022-10-18T08:53:39.131Z,15042.56
2022-10-18T08:54:37.005Z,15431.68
2022-10-18T08:55:37.150Z,16373.76
2022-10-18T08:56:37.309Z,17704.96
2022-10-18T08:57:37.463Z,17059.84
2022-10-18T08:58:37.563Z,15738.88
2022-10-18T08:59:37.727Z,12574.72
2022-10-18T09:00:37.863Z,10670.08
2022-10-18T09:01:38.037Z,9866.24
2022-10-18T09:02:38.074Z,9932.8
2022-10-18T09:03:38.268Z,10915.84
2022-10-18T09:04:38.373Z,11939.84
2022-10-18T09:05:38.533Z,12646.399
2022-10-18T09:06:38.694Z,12605.439
2022-10-18T09:07:38.786Z,12277.76
2022-10-18T09:08:38.970Z,11427.84
2022-10-18T09:09:39.122Z,11960.319
2022-10-18T09:10:39.243Z,14489.6
2022-10-18T09:11:39.394Z,18114.56
2022-10-18T09:12:39.550Z,22077.44
2022-10-18T09:13:39.698Z,27914.24
2022-10-18T09:14:39.844Z,35164.16
2022-10-18T09:15:40.000Z,39710.72
2022-10-18T09:16:40.108Z,22016
2022-10-18T09:17:40.274Z,25395.2
2022-10-18T09:18:40.399Z,39936
2022-10-18T09:19:40.564Z,28590.08
2022-10-18T09:20:40.703Z,19333.12
2022-10-18T09:21:40.865Z,19947.52
2022-10-18T09:22:41.011Z,19507.2
2022-10-18T09:23:41.119Z,17991.68
2022-10-18T09:24:41.269Z,17049.6
2022-10-18T09:25:41.413Z,18462.72
2022-10-18T09:26:41.564Z,20807.68
2022-10-18T09:27:41.690Z,20848.64
2022-10-18T09:28:41.873Z,21811.2
2022-10-18T09:29:41.935Z,22118.4
2022-10-18T09:30:42.063Z,40611.84
2022-10-18T09:31:42.223Z,20787.2
2022-10-18T09:32:42.329Z,21381.12
2022-10-18T09:33:42.421Z,26337.28
2022-10-18T09:34:42.527Z,49807.36
2022-10-18T09:35:42.644Z,44728.32
2022-10-18T09:36:42.783Z,92160
2022-10-18T09:37:42.952Z,38748.16
2022-10-18T09:38:43.095Z,84705.28
2022-10-18T09:39:43.250Z,70942.72
2022-10-18T09:40:43.399Z,37191.68
2022-10-18T09:41:43.496Z,37212.16
2022-10-18T09:42:43.667Z,42926.08
2022-10-18T09:43:43.755Z,37969.92
2022-10-18T09:44:43.928Z,27258.88
2022-10-18T09:45:44.043Z,22466.56
2022-10-18T09:46:44.226Z,18739.2
2022-10-18T09:47:44.315Z,12953.6
2022-10-18T09:48:44.469Z,9984
2022-10-18T09:49:44.609Z,10915.84
2022-10-18T09:50:44.762Z,10844.16
2022-10-18T09:51:44.919Z,11018.24
2022-10-18T09:52:45.067Z,9948.16
2022-10-18T09:53:45.176Z,10480.64
2022-10-18T09:54:45.280Z,12769.279
2022-10-18T09:55:45.369Z,15196.159
2022-10-18T09:56:45.582Z,15175.68
2022-10-18T09:57:45.679Z,14100.479
2022-10-18T09:58:45.829Z,12656.64
2022-10-18T09:59:45.977Z,8724.479
2022-10-18T10:00:46.083Z,6737.92
2022-10-18T10:01:46.188Z,5708.8
2022-10-18T10:02:46.409Z,4469.76
2022-10-18T10:03:46.481Z,3932.16
2022-10-18T10:04:46.635Z,3374.08
2022-10-18T10:05:46.794Z,2931.2
2022-10-18T10:06:46.949Z,2298.88
2022-10-18T10:07:47.039Z,2346.24
2022-10-18T10:08:47.199Z,4216.32
2022-10-18T10:09:47.309Z,4346.88
2022-10-18T10:10:47.482Z,3251.2
2022-10-18T10:11:47.606Z,3072
2022-10-18T10:12:47.758Z,2612.48
2022-10-18T10:13:47.857Z,3174.4
2022-10-18T10:14:47.994Z,3755.52
2022-10-18T10:15:48.147Z,4165.12
2022-10-18T10:16:48.299Z,5452.8
2022-10-18T10:17:48.459Z,4546.56
2022-10-18T10:18:48.607Z,4395.52
2022-10-18T10:19:48.769Z,3850.24
2022-10-18T10:20:48.914Z,4321.28
2022-10-18T10:21:49.094Z,4410.88
2022-10-18T10:22:49.246Z,4385.28
2022-10-18T10:23:49.366Z,4474.88
2022-10-18T10:24:49.526Z,4188.16
2022-10-18T10:25:49.679Z,3814.4
2022-10-18T10:26:49.845Z,3366.4
2022-10-18T10:27:49.979Z,3704.32
2022-10-18T10:28:50.169Z,4520.96
2022-10-18T10:29:50.311Z,5575.68
2022-10-18T10:30:50.453Z,6343.68
2022-10-18T10:31:50.580Z,7403.52
2022-10-18T10:32:50.744Z,8555.52
2022-10-18T10:33:50.885Z,8360.96
2022-10-18T10:34:51.042Z,6400
2022-10-18T10:35:53.967Z,5319.68
2022-10-18T10:36:51.351Z,5821.44
2022-10-18T10:37:51.503Z,5519.36
2022-10-18T10:38:51.656Z,5017.6
2022-10-18T10:40:06.985Z,3727.36
2022-10-18T10:40:51.973Z,3496.96
2022-10-18T10:41:52.099Z,3507.2
2022-10-18T10:42:54.450Z,4078.08
2022-10-18T10:43:52.416Z,4241.92
2022-10-18T10:44:52.562Z,3668.48
2022-10-18T10:45:52.702Z,3637.76
2022-10-18T10:46:52.800Z,3604.48
2022-10-18T10:47:52.954Z,3074.56
2022-10-18T10:49:00.565Z,3732.48
2022-10-18T10:49:53.268Z,3507.2
2022-10-18T10:50:54.445Z,3814.4
2022-10-18T10:51:57.771Z,3850.24
2022-10-18T10:52:53.672Z,3955.2
2022-10-18T10:53:53.888Z,3983.36
2022-10-18T10:54:58.255Z,3676.16
2022-10-18T10:55:54.081Z,3594.24
2022-10-18T10:56:54.180Z,4820.48
2022-10-18T10:57:54.275Z,4487.68
2022-10-18T10:58:54.516Z,3886.08
2022-10-18T10:59:54.613Z,3520
2022-10-18T11:00:54.741Z,3087.36
2022-10-18T11:01:54.889Z,2780.16
2022-10-18T11:02:59.441Z,2682.88
2022-10-18T11:03:55.236Z,2359.04
2022-10-18T11:04:55.342Z,2131.2
2022-10-18T11:05:55.523Z,2222.08
2022-10-18T11:06:55.649Z,1984
2022-10-18T11:07:55.800Z,1939.2
2022-10-18T11:08:55.950Z,2094.08
2022-10-18T11:09:56.102Z,2268.16
2022-10-18T11:10:56.260Z,2373.12
2022-10-18T11:11:56.411Z,2588.16
2022-10-18T11:12:56.558Z,2416.64
2022-10-18T11:14:13.482Z,2406.4
2022-10-18T11:14:56.871Z,2035.2
2022-10-18T11:15:56.967Z,1902.08
2022-10-18T11:16:57.117Z,1820.16
2022-10-18T11:17:57.299Z,1859.84
2022-10-18T11:18:57.377Z,1948.16
2022-10-18T11:19:57.538Z,2195.2
2022-10-18T11:20:57.666Z,2352.64
2022-10-18T11:21:57.828Z,2483.2
2022-10-18T11:22:57.978Z,2800.64
2022-10-18T11:23:58.176Z,2972.16
2022-10-18T11:24:58.275Z,2680.32
2022-10-18T11:25:58.433Z,2859.52
2022-10-18T11:26:58.590Z,3461.12
2022-10-18T11:27:58.741Z,3520
2022-10-18T11:28:58.924Z,3420.16
2022-10-18T11:29:58.990Z,2995.2
2022-10-18T11:30:59.137Z,3054.08
2022-10-18T11:31:59.287Z,3220.48
2022-10-18T11:32:59.453Z,3115.52
2022-10-18T11:34:08.038Z,2808.32
2022-10-18T11:34:59.750Z,2654.72
2022-10-18T11:36:03.633Z,2464
2022-10-18T11:37:22.778Z,2639.36
2022-10-18T11:38:00.126Z,3230.72
2022-10-18T11:39:00.262Z,3822.08
2022-10-18T11:40:00.402Z,3617.28
2022-10-18T11:41:00.571Z,3642.88
2022-10-18T11:42:00.713Z,3942.4
2022-10-18T11:43:00.862Z,3845.12
2022-10-18T11:44:02.893Z,3453.44
2022-10-18T11:45:01.174Z,3238.4
2022-10-18T11:46:01.310Z,3256.32
2022-10-18T11:47:01.470Z,3397.12
2022-10-18T11:48:01.620Z,3407.36
2022-10-18T11:49:01.777Z,3217.92
2022-10-18T11:50:01.918Z,3046.4
2022-10-18T11:51:02.069Z,3345.92
2022-10-18T11:52:07.640Z,4149.76
2022-10-18T11:53:02.385Z,4055.04
2022-10-18T11:54:02.490Z,4751.36
2022-10-18T11:55:02.642Z,4449.28
2022-10-18T11:56:02.792Z,3978.24
2022-10-18T11:57:02.952Z,3297.28
2022-10-18T11:58:03.045Z,2836.48
2022-10-18T11:59:03.198Z,2675.2
2022-10-18T12:00:03.377Z,2785.28
2022-10-18T12:01:03.485Z,3484.16
2022-10-18T12:02:03.645Z,3627.52
2022-10-18T12:03:03.887Z,3407.36
2022-10-18T12:04:03.956Z,3266.56
2022-10-18T12:05:23.392Z,3745.28
2022-10-18T12:06:04.255Z,4907.52
2022-10-18T12:07:04.399Z,5637.12
2022-10-18T12:08:04.557Z,5488.64
2022-10-18T12:09:04.714Z,5096.96
2022-10-18T12:10:04.827Z,4659.2
2022-10-18T12:11:06.007Z,3816.96
2022-10-18T12:12:05.159Z,3363.84
2022-10-18T12:13:05.276Z,3133.44
2022-10-18T12:14:05.360Z,2795.52
2022-10-18T12:15:05.548Z,2328.32
2022-10-18T12:16:05.673Z,1898.24
2022-10-18T12:17:39.227Z,1625.6
2022-10-18T12:18:05.931Z,1472
2022-10-18T12:19:06.032Z,1504
2022-10-18T12:20:06.211Z,1578.24
2022-10-18T12:21:06.278Z,1520.64
2022-10-18T12:22:06.509Z,1384.96
2022-10-18T12:23:06.598Z,1266.56
2022-10-18T12:24:06.737Z,1125.12
2022-10-18T12:25:06.880Z,1250.56
2022-10-18T12:26:07.047Z,1850.88
2022-10-18T12:27:07.185Z,2982.4
2022-10-18T12:28:07.374Z,4380.16
2022-10-18T12:29:07.564Z,5560.32
2022-10-18T12:30:07.656Z,6389.76
2022-10-18T12:31:07.800Z,6507.52
2022-10-18T12:32:07.958Z,6522.88
2022-10-18T12:33:23.437Z,6942.72
2022-10-18T12:34:08.248Z,6681.6
2022-10-18T12:35:08.404Z,5780.48
2022-10-18T12:36:08.565Z,4887.04
2022-10-18T12:37:08.712Z,4195.84
2022-10-18T12:38:08.823Z,3773.44
2022-10-18T12:39:08.961Z,3691.52
2022-10-18T12:40:11.318Z,3932.16
2022-10-18T12:41:09.265Z,4119.04
2022-10-18T12:42:09.414Z,4249.6
2022-10-18T12:43:09.571Z,3973.12
2022-10-18T12:44:09.735Z,3699.2
2022-10-18T12:45:09.878Z,3463.68